createdAt,value
2018-06-27T03:37:43.478Z,14.3
2018-06-27T03:42:04.882Z,14.4
2018-06-27T03:43:58.609Z,14.4
2018-06-27T03:44:19.565Z,14.3
2018-06-27T03:45:22.384Z,14.3
2018-06-27T03:45:43.466Z,14.4
2018-06-27T05:49:55.579Z,16.3
2018-06-27T05:50:17.312Z,16.3
2018-06-27T05:50:38.055Z,16.3
2018-06-27T05:51:39.992Z,16.4
2018-06-27T05:52:01.896Z,16.4
2018-06-27T05:52:23.317Z,16.4
2018-06-27T05:53:15.388Z,16.4
2018-06-27T05:53:37.155Z,16.5
2018-06-27T05:55:30.123Z,16.5
2018-06-27T05:56:08.185Z,16.5
2018-06-27T05:56:52.615Z,16.5
2018-06-27T05:57:15.328Z,16.6
2018-06-27T05:57:35.839Z,16.6
2018-06-27T05:57:56.290Z,16.5
2018-06-27T05:58:17.255Z,16.5
2018-06-27T05:58:38.528Z,16.6
2018-06-27T05:58:59.259Z,16.6
2018-06-27T05:59:19.946Z,16.6
2018-06-27T05:59:40.381Z,16.6
2018-06-27T06:00:01.607Z,16.5
2018-06-27T06:00:22.622Z,16.5
2018-06-27T06:00:43.527Z,16.6
2018-06-27T06:01:04.262Z,16.6
2018-06-27T06:01:24.937Z,16.7
2018-06-27T06:01:45.639Z,16.6
2018-06-27T06:02:06.330Z,16.6
2018-06-27T06:02:26.917Z,16.6
2018-06-27T06:02:47.360Z,16.6
2018-06-27T06:03:07.879Z,16.6
2018-06-27T06:03:28.368Z,16.7
2018-06-27T06:03:49.107Z,16.7
2018-06-27T06:04:09.994Z,16.7
2018-06-27T06:04:30.977Z,16.8
2018-06-27T06:04:51.877Z,16.7
2018-06-27T06:05:12.453Z,16.8
2018-06-27T06:05:33.529Z,16.7
2018-06-27T06:05:54.142Z,16.7
2018-06-27T06:06:15.006Z,16.7
2018-06-27T06:06:35.759Z,16.7
2018-06-27T06:06:56.348Z,16.8
2018-06-27T06:07:16.857Z,16.7
2018-06-27T06:07:37.753Z,16.8
2018-06-27T06:07:58.771Z,16.8
2018-06-27T06:08:19.774Z,16.8
2018-06-27T06:08:40.636Z,16.8
2018-06-27T06:09:01.542Z,16.7
2018-06-27T06:09:22.464Z,16.7
2018-06-27T06:09:43.160Z,16.8
2018-06-27T06:10:03.965Z,16.8
2018-06-27T06:10:24.838Z,16.8
2018-06-27T06:10:45.623Z,16.8
2018-06-27T06:11:06.517Z,16.9
2018-06-27T06:11:27.843Z,16.8
2018-06-27T06:11:48.965Z,16.8
2018-06-27T06:12:09.693Z,16.7
2018-06-27T06:12:30.450Z,16.8
2018-06-27T06:12:51.357Z,16.8
2018-06-27T06:13:12.101Z,16.9
2018-06-27T06:13:33.028Z,16.9
2018-06-27T06:13:53.772Z,16.9
2018-06-27T06:14:14.510Z,16.8
2018-06-27T06:14:35.324Z,16.9
2018-06-27T06:14:57.006Z,16.9
2018-06-27T06:15:17.793Z,17
2018-06-27T06:15:38.473Z,16.9
2018-06-27T06:15:59.479Z,17
2018-06-27T06:16:20.394Z,17
2018-06-27T06:16:41.131Z,17
2018-06-27T06:17:01.768Z,17
2018-06-27T06:17:22.464Z,17
2018-06-27T06:17:43.438Z,16.9
2018-06-27T06:18:04.157Z,17
2018-06-27T06:18:25.226Z,16.9
2018-06-27T06:18:46.260Z,17
2018-06-27T06:19:07.215Z,17
2018-06-27T06:19:28.249Z,17
2018-06-27T06:19:49.288Z,17.1
2018-06-27T06:20:10.036Z,17.1
2018-06-27T06:20:30.810Z,17.1
2018-06-27T06:20:51.630Z,17
2018-06-27T06:21:12.503Z,17
2018-06-27T06:21:33.548Z,17
2018-06-27T06:21:54.616Z,17.1
2018-06-27T06:22:15.672Z,17.1
2018-06-27T06:22:36.495Z,17.1
2018-06-27T06:22:57.241Z,17.2
2018-06-27T06:23:18.430Z,17.2
2018-06-27T06:23:39.244Z,17.2
2018-06-27T06:24:00.170Z,17.2
2018-06-27T06:24:20.779Z,17.2
2018-06-27T06:24:41.664Z,17.2
2018-06-27T06:25:02.790Z,17.2
2018-06-27T06:25:23.851Z,17.2
2018-06-27T06:25:45.108Z,17.3
2018-06-27T06:26:06.066Z,17.3
2018-06-27T06:26:26.934Z,17.3
2018-06-27T06:26:48.510Z,17.4
2018-06-27T06:27:09.311Z,17.4
2018-06-27T06:27:30.103Z,17.4
2018-06-27T06:27:51.022Z,17.4
2018-06-27T06:28:11.883Z,17.4
2018-06-27T06:28:32.577Z,17.4
2018-06-27T06:28:53.304Z,17.4
2018-06-27T06:29:14.162Z,17.5
2018-06-27T06:29:34.661Z,17.6
2018-06-27T06:29:55.115Z,17.5
2018-06-27T06:30:15.750Z,17.6
2018-06-27T06:30:36.718Z,17.6
2018-06-27T06:30:57.287Z,17.6
2018-06-27T06:31:18.227Z,17.6
2018-06-27T06:31:38.829Z,17.6
2018-06-27T06:31:59.521Z,17.6
2018-06-27T06:32:20.870Z,17.6
2018-06-27T06:32:42.004Z,17.6
2018-06-27T06:33:02.790Z,17.7
2018-06-27T06:33:23.686Z,17.6
2018-06-27T06:33:44.432Z,17.6
2018-06-27T06:34:05.220Z,17.7
2018-06-27T06:34:25.998Z,17.7
2018-06-27T06:34:46.791Z,17.7
2018-06-27T06:35:07.650Z,17.8
2018-06-27T06:35:28.271Z,17.8
2018-06-27T06:35:48.635Z,17.8
2018-06-27T06:36:09.293Z,17.8
2018-06-27T06:36:29.915Z,17.8
2018-06-27T06:36:50.675Z,17.9
2018-06-27T06:37:11.548Z,17.9
2018-06-27T06:37:32.426Z,18
2018-06-27T06:37:53.306Z,17.9
2018-06-27T06:38:14.179Z,18
2018-06-27T06:38:34.871Z,18
2018-06-27T06:38:55.464Z,18
2018-06-27T06:39:16.033Z,18.1
2018-06-27T06:39:36.733Z,18
2018-06-27T06:39:57.696Z,18.1
2018-06-27T06:40:18.245Z,18.1
2018-06-27T06:40:38.845Z,18
2018-06-27T06:40:59.326Z,18.1
2018-06-27T06:41:19.807Z,18.1
2018-06-27T06:41:40.520Z,18.1
2018-06-27T06:42:01.278Z,18.1
2018-06-27T06:42:21.727Z,18.1
2018-06-27T06:42:42.581Z,18.1
2018-06-27T06:43:03.055Z,18.1
2018-06-27T06:43:24.567Z,18.3
2018-06-27T06:43:45.184Z,18.3
2018-06-27T06:44:06.078Z,18.2
2018-06-27T06:44:26.669Z,18.2
2018-06-27T06:44:47.219Z,18.2
2018-06-27T06:45:07.727Z,18.1
2018-06-27T06:45:28.275Z,18.3
2018-06-27T06:45:49.020Z,18.2
2018-06-27T06:46:09.728Z,18.4
2018-06-27T06:46:30.507Z,18.3
2018-06-27T06:46:50.929Z,18.2
2018-06-27T06:47:11.555Z,18.4
2018-06-27T06:47:32.072Z,18.3
2018-06-27T06:47:52.649Z,18.4
2018-06-27T06:48:13.192Z,18.4
2018-06-27T06:48:34.224Z,18.5
2018-06-27T06:48:54.740Z,18.5
2018-06-27T06:49:15.296Z,18.5
2018-06-27T06:49:35.926Z,18.5
2018-06-27T06:49:56.815Z,18.5
2018-06-27T06:50:17.384Z,18.6
2018-06-27T06:50:37.906Z,18.6
2018-06-27T06:50:58.432Z,18.6
2018-06-27T06:51:19.247Z,18.6
2018-06-27T06:51:39.985Z,18.6
2018-06-27T06:52:00.677Z,18.6
2018-06-27T06:52:21.496Z,18.6
2018-06-27T06:52:43.057Z,18.7
2018-06-27T06:53:03.579Z,18.7
2018-06-27T06:53:24.241Z,18.7
2018-06-27T06:53:45.455Z,18.7
2018-06-27T06:54:06.461Z,18.7
2018-06-27T06:54:27.416Z,18.8
2018-06-27T06:54:47.748Z,18.8
2018-06-27T06:55:08.193Z,18.7
2018-06-27T06:55:28.951Z,18.8
2018-06-27T06:55:50.956Z,18.8
2018-06-27T06:56:11.519Z,18.9
2018-06-27T06:56:32.048Z,18.9
2018-06-27T06:56:52.683Z,18.9
2018-06-27T06:57:13.586Z,18.9
2018-06-27T06:57:34.174Z,19
2018-06-27T06:57:54.787Z,18.9
2018-06-27T06:58:15.524Z,18.9
2018-06-27T06:58:38.479Z,19
2018-06-27T06:58:59.138Z,18.9
2018-06-27T06:59:19.720Z,19
2018-06-27T06:59:40.279Z,19
2018-06-27T07:00:01.214Z,19
2018-06-27T07:00:21.967Z,19
2018-06-27T07:00:42.908Z,19
2018-06-27T07:01:03.746Z,19
2018-06-27T07:01:24.503Z,19.1
2018-06-27T07:01:45.382Z,19.1
2018-06-27T07:02:06.180Z,19.1
2018-06-27T07:02:26.948Z,19.1
2018-06-27T07:02:47.509Z,19.1
2018-06-27T07:03:08.259Z,19.1
2018-06-27T07:03:28.864Z,19.1
2018-06-27T07:03:49.360Z,19.1
2018-06-27T07:04:10.008Z,19.2
2018-06-27T07:04:30.600Z,19.2
2018-06-27T07:04:51.109Z,19.2
2018-06-27T07:05:11.805Z,19.3
2018-06-27T07:05:32.240Z,19.3
2018-06-27T07:05:52.918Z,19.3
2018-06-27T07:06:13.381Z,19.3
2018-06-27T07:06:34.111Z,19.2
2018-06-27T07:06:54.673Z,19.3
2018-06-27T07:07:15.818Z,19.3
2018-06-27T07:07:36.387Z,19.3
2018-06-27T07:07:56.564Z,19.3
2018-06-27T07:08:17.286Z,19.3
2018-06-27T07:08:38.185Z,19.3
2018-06-27T07:08:58.723Z,19.4
2018-06-27T07:09:19.588Z,19.4
2018-06-27T07:09:40.411Z,19.4
2018-06-27T07:10:01.233Z,19.4
2018-06-27T07:10:21.965Z,19.5
2018-06-27T07:10:42.816Z,19.4
2018-06-27T07:11:04.142Z,19.4
2018-06-27T07:11:24.973Z,19.5
2018-06-27T07:11:45.541Z,19.4
2018-06-27T07:12:06.261Z,19.5
2018-06-27T07:12:27.068Z,19.4
2018-06-27T07:12:47.728Z,19.5
2018-06-27T07:13:08.204Z,19.5
2018-06-27T07:13:28.568Z,19.5
2018-06-27T07:13:49.070Z,19.5
2018-06-27T07:14:09.821Z,19.5
2018-06-27T07:14:30.300Z,19.5
2018-06-27T07:14:50.895Z,19.5
2018-06-27T07:15:11.604Z,19.5
2018-06-27T07:15:33.044Z,19.5
2018-06-27T07:15:53.647Z,19.5
2018-06-27T07:16:14.471Z,19.5
2018-06-27T07:16:35.295Z,19.6
2018-06-27T07:16:55.716Z,19.6
2018-06-27T07:17:16.471Z,19.6
2018-06-27T07:17:37.004Z,19.6
2018-06-27T07:17:57.623Z,19.6
2018-06-27T07:18:18.100Z,19.7
2018-06-27T07:18:38.729Z,19.6
2018-06-27T07:18:59.160Z,19.7
2018-06-27T07:19:19.880Z,19.6
2018-06-27T07:19:40.313Z,19.6
2018-06-27T07:20:00.751Z,19.6
2018-06-27T07:20:21.958Z,19.7
2018-06-27T07:20:42.440Z,19.6
2018-06-27T07:21:03.260Z,19.7
2018-06-27T07:21:23.892Z,19.6
2018-06-27T07:21:44.436Z,19.8
2018-06-27T07:22:04.904Z,19.8
2018-06-27T07:22:25.607Z,19.8
2018-06-27T07:22:46.388Z,19.8
2018-06-27T07:23:07.135Z,19.8
2018-06-27T07:23:27.985Z,19.9
2018-06-27T07:23:48.605Z,19.8
2018-06-27T07:24:09.613Z,19.9
2018-06-27T07:24:30.407Z,19.9
2018-06-27T07:24:50.955Z,19.8
2018-06-27T07:25:11.873Z,19.8
2018-06-27T07:25:32.725Z,19.9
2018-06-27T07:25:53.370Z,20
2018-06-27T07:26:14.035Z,20
2018-06-27T07:26:34.806Z,19.9
2018-06-27T07:26:55.579Z,19.9
2018-06-27T07:27:16.222Z,20
2018-06-27T07:27:36.852Z,20
2018-06-27T07:27:57.472Z,20
2018-06-27T07:28:18.002Z,20
2018-06-27T07:28:39.175Z,20
2018-06-27T07:28:59.733Z,20
2018-06-27T07:29:20.269Z,20
2018-06-27T07:29:40.668Z,19.9
2018-06-27T07:30:01.282Z,20
2018-06-27T07:30:21.743Z,20
2018-06-27T07:30:42.572Z,19.9
2018-06-27T07:31:03.381Z,20
2018-06-27T07:31:25.197Z,20
2018-06-27T07:31:45.621Z,19.9
2018-06-27T07:32:06.496Z,20
2018-06-27T07:32:27.369Z,19.9
2018-06-27T07:32:48.202Z,19.9
2018-06-27T07:33:08.908Z,19.9
2018-06-27T07:33:29.552Z,19.9
2018-06-27T07:33:50.224Z,20
2018-06-27T07:34:11.139Z,20
2018-06-27T07:34:31.924Z,20
2018-06-27T07:34:52.691Z,19.9
2018-06-27T07:35:13.193Z,19.9
2018-06-27T07:35:33.933Z,19.8
2018-06-27T07:35:54.848Z,19.8
2018-06-27T07:36:15.621Z,19.9
2018-06-27T07:36:36.611Z,19.9
2018-06-27T07:36:58.684Z,19.9
2018-06-27T07:37:19.199Z,19.8
2018-06-27T07:37:40.177Z,19.8
2018-06-27T07:38:01.435Z,19.8
2018-06-27T07:38:22.368Z,19.8
2018-06-27T07:38:42.944Z,19.8
2018-06-27T07:39:03.982Z,19.8
2018-06-27T07:39:25.020Z,19.8
2018-06-27T07:39:45.725Z,19.8
2018-06-27T07:40:06.553Z,19.7
2018-06-27T07:40:27.547Z,19.7
2018-06-27T07:40:48.296Z,19.7
2018-06-27T07:41:09.468Z,19.8
2018-06-27T07:41:29.990Z,19.7
2018-06-27T07:41:50.597Z,19.7
2018-06-27T07:42:11.011Z,19.6
2018-06-27T07:42:32.447Z,19.7
2018-06-27T07:42:53.676Z,19.7
2018-06-27T07:43:14.434Z,19.7
2018-06-27T07:43:35.326Z,19.7
2018-06-27T07:43:55.713Z,19.7
2018-06-27T07:44:16.566Z,19.8
2018-06-27T07:44:37.408Z,19.7
2018-06-27T07:44:58.420Z,19.8
2018-06-27T07:45:19.461Z,19.8
2018-06-27T07:45:40.173Z,19.8
2018-06-27T07:46:01.548Z,19.9
2018-06-27T07:46:22.244Z,19.9
2018-06-27T07:46:43.600Z,19.9
2018-06-27T07:47:04.471Z,20
2018-06-27T07:47:25.432Z,20
2018-06-27T07:47:45.826Z,20
2018-06-27T07:48:07.277Z,20
2018-06-27T07:48:27.805Z,20
2018-06-27T07:48:48.511Z,20.1
2018-06-27T07:49:09.288Z,20.1
2018-06-27T07:49:30.053Z,20
2018-06-27T07:49:50.799Z,20.1
2018-06-27T07:50:11.511Z,20.2
2018-06-27T07:50:32.305Z,20.1
2018-06-27T07:50:52.861Z,20.2
2018-06-27T07:51:13.564Z,20.2
2018-06-27T07:51:34.141Z,20.3
2018-06-27T07:51:54.693Z,20.3
2018-06-27T07:52:15.509Z,20.2
2018-06-27T07:52:36.378Z,20.3
2018-06-27T07:52:57.252Z,20.4
2018-06-27T07:53:17.803Z,20.3
2018-06-27T07:53:38.169Z,20.4
2018-06-27T07:53:58.780Z,20.3
2018-06-27T07:54:19.367Z,20.4
2018-06-27T07:54:39.835Z,20.4
2018-06-27T07:55:00.694Z,20.4
2018-06-27T07:55:21.978Z,20.5
2018-06-27T07:55:42.915Z,20.5
2018-06-27T07:56:03.966Z,20.6
2018-06-27T07:56:24.847Z,20.5
2018-06-27T07:56:45.741Z,20.5
2018-06-27T07:57:06.360Z,20.6
2018-06-27T07:57:27.650Z,20.8
2018-06-27T07:57:48.451Z,20.7
2018-06-27T07:58:09.125Z,20.7
2018-06-27T07:58:29.871Z,20.8
2018-06-27T07:58:50.750Z,20.8
2018-06-27T07:59:11.348Z,20.9
2018-06-27T07:59:31.757Z,20.8
2018-06-27T07:59:52.944Z,20.9
2018-06-27T08:00:13.732Z,20.9
2018-06-27T08:00:34.324Z,20.9
2018-06-27T08:00:54.985Z,21
2018-06-27T08:01:15.801Z,21
2018-06-27T08:01:36.561Z,21
2018-06-27T08:01:57.454Z,21
2018-06-27T08:02:18.061Z,21
2018-06-27T08:02:38.744Z,21
2018-06-27T08:02:59.496Z,21.1
2018-06-27T08:03:20.061Z,21
2018-06-27T08:03:40.969Z,21.1
2018-06-27T08:04:01.699Z,21.1
2018-06-27T08:04:22.594Z,21.2
2018-06-27T08:04:43.468Z,21.2
2018-06-27T08:05:04.624Z,21.2
2018-06-27T08:05:25.395Z,21.2
2018-06-27T08:05:46.400Z,21.3
2018-06-27T08:06:07.313Z,21.3
2018-06-27T08:06:27.725Z,21.3
2018-06-27T08:06:48.270Z,21.3
2018-06-27T08:07:09.061Z,21.3
2018-06-27T08:07:29.958Z,21.4
2018-06-27T08:07:50.553Z,21.3
2018-06-27T08:08:11.197Z,21.4
2018-06-27T08:08:31.810Z,21.4
2018-06-27T08:08:52.542Z,21.4
2018-06-27T08:09:13.274Z,21.4
2018-06-27T08:09:34.150Z,21.4
2018-06-27T08:09:55.049Z,21.3
2018-06-27T08:10:15.766Z,21.4
2018-06-27T08:10:36.587Z,21.4
2018-06-27T08:10:57.250Z,21.4
2018-06-27T08:11:17.890Z,21.4
2018-06-27T08:11:38.297Z,21.4
2018-06-27T08:11:58.808Z,21.4
2018-06-27T08:12:19.754Z,21.4
2018-06-27T08:12:40.774Z,21.4
2018-06-27T08:13:01.512Z,21.4
2018-06-27T08:13:22.131Z,21.4
2018-06-27T08:13:43.200Z,21.3
2018-06-27T08:14:03.766Z,21.3
2018-06-27T08:14:24.270Z,21.2
2018-06-27T08:14:44.871Z,21.2
2018-06-27T08:15:05.471Z,21.2
2018-06-27T08:15:26.121Z,21.2
2018-06-27T08:15:46.656Z,21.1
2018-06-27T08:16:07.035Z,21
2018-06-27T08:16:28.079Z,21.1
2018-06-27T08:16:48.667Z,20.9
2018-06-27T08:17:09.120Z,20.8
2018-06-27T08:17:29.597Z,20.9
2018-06-27T08:17:49.999Z,20.8
2018-06-27T08:18:10.723Z,20.7
2018-06-27T08:18:31.182Z,20.7
2018-06-27T08:18:52.618Z,20.7
2018-06-27T08:19:13.253Z,20.6
2018-06-27T08:19:33.901Z,20.7
2018-06-27T08:19:54.603Z,20.6
2018-06-27T08:20:15.360Z,20.6
2018-06-27T08:20:36.201Z,20.6
2018-06-27T08:20:56.754Z,20.5
2018-06-27T08:21:18.496Z,20.5
2018-06-27T08:21:39.507Z,20.4
2018-06-27T08:22:00.189Z,20.4
2018-06-27T08:22:20.967Z,20.4
2018-06-27T08:22:42.968Z,20.4
2018-06-27T08:23:03.646Z,20.4
2018-06-27T08:23:24.609Z,20.4
2018-06-27T08:23:45.219Z,20.3
2018-06-27T08:24:05.855Z,20.4
2018-06-27T08:24:26.359Z,20.4
2018-06-27T08:24:47.187Z,20.4
2018-06-27T08:25:07.877Z,20.5
2018-06-27T08:25:28.724Z,20.5
2018-06-27T08:25:49.332Z,20.4
2018-06-27T08:26:09.988Z,20.5
2018-06-27T08:26:30.718Z,20.5
2018-06-27T08:26:52.087Z,20.4
2018-06-27T08:27:12.707Z,20.5
2018-06-27T08:27:33.371Z,20.4
2018-06-27T08:27:54.020Z,20.5
2018-06-27T08:28:15.000Z,20.4
2018-06-27T08:28:35.529Z,20.4
2018-06-27T08:28:56.010Z,20.5
2018-06-27T08:29:16.581Z,20.5
2018-06-27T08:29:37.665Z,20.5
2018-06-27T08:29:58.685Z,20.5
2018-06-27T08:30:19.339Z,20.6
2018-06-27T08:30:40.160Z,20.6
2018-06-27T08:31:00.915Z,20.7
2018-06-27T08:31:21.554Z,20.7
2018-06-27T08:31:42.265Z,20.7
2018-06-27T08:32:03.026Z,20.7
2018-06-27T08:32:23.792Z,20.8
2018-06-27T08:32:44.557Z,20.8
2018-06-27T08:33:05.080Z,20.7
2018-06-27T08:33:26.067Z,20.8
2018-06-27T08:33:46.903Z,20.8
2018-06-27T08:34:07.724Z,20.9
2018-06-27T08:34:28.536Z,20.9
2018-06-27T08:34:49.024Z,20.9
2018-06-27T08:35:10.031Z,20.9
2018-06-27T08:35:30.534Z,20.9
2018-06-27T08:35:51.404Z,20.9
2018-06-27T08:36:12.795Z,20.8
2018-06-27T08:36:33.340Z,20.9
2018-06-27T08:36:54.699Z,20.9
2018-06-27T08:37:15.401Z,20.9
2018-06-27T08:37:36.348Z,20.9
2018-06-27T08:37:57.019Z,20.9
2018-06-27T08:38:17.943Z,20.9
2018-06-27T08:38:38.646Z,21
2018-06-27T08:38:59.343Z,21
2018-06-27T08:39:20.081Z,21
2018-06-27T08:39:40.642Z,21
2018-06-27T08:40:01.362Z,21
2018-06-27T08:40:22.000Z,20.9
2018-06-27T08:40:42.627Z,21
2018-06-27T08:41:03.349Z,21
2018-06-27T08:41:23.881Z,21
2018-06-27T08:41:44.556Z,21
2018-06-27T08:42:05.146Z,21
2018-06-27T08:42:25.766Z,21.1
2018-06-27T08:42:46.412Z,21.1
2018-06-27T08:43:06.972Z,21.1
2018-06-27T08:43:27.806Z,21.1
2018-06-27T08:43:48.785Z,21.2
2018-06-27T08:44:09.360Z,21.1
2018-06-27T08:44:29.971Z,21.1
2018-06-27T08:44:51.179Z,21
2018-06-27T08:45:12.494Z,21
2018-06-27T08:45:32.921Z,21
2018-06-27T08:45:53.377Z,21
2018-06-27T08:46:14.171Z,21
2018-06-27T08:46:34.813Z,21
2018-06-27T08:46:56.493Z,21.1
2018-06-27T08:47:16.988Z,21
2018-06-27T08:47:37.723Z,21.1
2018-06-27T08:47:58.218Z,21
2018-06-27T08:48:18.640Z,20.9
2018-06-27T08:48:39.093Z,21
2018-06-27T08:48:59.828Z,21.1
2018-06-27T08:49:20.764Z,21
2018-06-27T08:49:41.566Z,21
2018-06-27T08:50:02.294Z,21.1
2018-06-27T08:50:23.129Z,21
2018-06-27T08:50:43.989Z,21.1
2018-06-27T08:51:05.138Z,21.1
2018-06-27T08:51:26.698Z,21.2
2018-06-27T08:51:47.315Z,21.1
2018-06-27T08:52:07.897Z,21.2
2018-06-27T08:52:29.397Z,21.1
2018-06-27T08:52:49.930Z,21.2
2018-06-27T08:53:10.853Z,21.3
2018-06-27T08:53:31.587Z,21.3
2018-06-27T08:53:52.171Z,21.3
2018-06-27T08:54:12.903Z,21.4
2018-06-27T08:54:33.711Z,21.4
2018-06-27T08:54:55.055Z,21.4
2018-06-27T08:55:15.722Z,21.4
2018-06-27T08:55:36.660Z,21.5
2018-06-27T08:55:57.375Z,21.5
2018-06-27T08:56:17.911Z,21.5
2018-06-27T08:56:38.684Z,21.5
2018-06-27T08:56:59.645Z,21.5
2018-06-27T08:57:20.212Z,21.5
2018-06-27T08:57:41.084Z,21.6
2018-06-27T08:58:01.511Z,21.5
2018-06-27T08:58:22.712Z,21.6
2018-06-27T08:58:43.141Z,21.6
2018-06-27T08:59:03.662Z,21.5
2018-06-27T08:59:24.326Z,21.6
2018-06-27T08:59:45.041Z,21.7
2018-06-27T09:00:05.562Z,21.5
2018-06-27T09:00:26.372Z,21.5
2018-06-27T09:00:47.233Z,21.5
2018-06-27T09:01:07.866Z,21.7
2018-06-27T09:01:28.594Z,21.5
2018-06-27T09:01:49.228Z,21.6
2018-06-27T09:02:09.866Z,21.6
2018-06-27T09:02:30.790Z,21.7
2018-06-27T09:02:51.718Z,21.7
2018-06-27T09:03:12.847Z,21.7
2018-06-27T09:03:33.979Z,21.7
2018-06-27T09:03:54.615Z,21.7
2018-06-27T09:04:15.148Z,21.7
2018-06-27T09:04:35.459Z,21.7
2018-06-27T09:04:56.107Z,21.7
2018-06-27T09:05:16.554Z,21.7
2018-06-27T09:05:36.952Z,21.8
2018-06-27T09:05:57.628Z,21.8
2018-06-27T09:06:18.001Z,21.9
2018-06-27T09:06:38.623Z,21.8
2018-06-27T09:06:59.192Z,21.9
2018-06-27T09:07:20.602Z,21.9
2018-06-27T09:07:41.488Z,21.8
2018-06-27T09:08:02.493Z,21.9
2018-06-27T09:08:22.980Z,22
2018-06-27T09:08:43.590Z,21.9
2018-06-27T09:09:04.266Z,22
2018-06-27T09:09:25.546Z,21.9
2018-06-27T09:09:45.855Z,21.8
2018-06-27T09:10:06.475Z,21.8
2018-06-27T09:10:27.009Z,21.9
2018-06-27T09:10:47.460Z,21.8
2018-06-27T09:11:08.554Z,21.8
2018-06-27T09:11:29.008Z,21.8
2018-06-27T09:11:49.664Z,21.9
2018-06-27T09:12:10.025Z,21.8
2018-06-27T09:12:30.349Z,21.9
2018-06-27T09:12:50.981Z,21.8
2018-06-27T09:13:11.703Z,21.8
2018-06-27T09:13:32.103Z,21.8
2018-06-27T09:13:52.455Z,21.7
2018-06-27T09:14:12.856Z,21.8
2018-06-27T09:14:33.468Z,21.8
2018-06-27T09:14:53.887Z,21.8
2018-06-27T09:15:15.158Z,21.8
2018-06-27T09:15:35.775Z,21.8
2018-06-27T09:15:56.377Z,21.9
2018-06-27T09:16:16.973Z,21.8
2018-06-27T09:16:37.628Z,21.8
2018-06-27T09:16:58.189Z,21.8
2018-06-27T09:17:18.617Z,21.8
2018-06-27T09:17:39.144Z,21.9
2018-06-27T09:17:59.759Z,21.9
2018-06-27T09:18:20.176Z,21.9
2018-06-27T09:18:40.825Z,22
2018-06-27T09:19:01.510Z,22
2018-06-27T09:19:21.901Z,21.9
2018-06-27T09:19:42.440Z,22
2018-06-27T09:20:03.307Z,22.1
2018-06-27T09:20:25.598Z,22.1
2018-06-27T09:20:46.107Z,22
2018-06-27T09:21:06.810Z,22.1
2018-06-27T09:21:27.629Z,22
2018-06-27T09:21:48.520Z,22
2018-06-27T09:22:09.316Z,22
2018-06-27T09:22:29.989Z,21.9
2018-06-27T09:22:50.459Z,22
2018-06-27T09:23:10.796Z,21.9
2018-06-27T09:23:31.380Z,21.8
2018-06-27T09:23:51.872Z,21.9
2018-06-27T09:24:12.309Z,21.8
2018-06-27T09:24:32.735Z,21.8
2018-06-27T09:24:53.131Z,21.8
2018-06-27T09:25:14.640Z,21.9
2018-06-27T09:25:35.056Z,21.9
2018-06-27T09:25:55.578Z,21.9
2018-06-27T09:26:16.512Z,21.9
2018-06-27T09:26:37.172Z,21.8
2018-06-27T09:26:57.773Z,21.8
2018-06-27T09:27:18.289Z,21.8
2018-06-27T09:27:38.559Z,21.8
2018-06-27T09:27:59.068Z,21.9
2018-06-27T09:28:19.669Z,21.8
2018-06-27T09:28:40.387Z,21.8
2018-06-27T09:29:00.808Z,21.8
2018-06-27T09:29:21.533Z,21.8
2018-06-27T09:29:43.030Z,21.9
2018-06-27T09:30:03.789Z,21.9
2018-06-27T09:30:24.362Z,21.8
2018-06-27T09:30:44.998Z,21.8
2018-06-27T09:31:05.560Z,21.8
2018-06-27T09:31:25.924Z,21.8
2018-06-27T09:31:47.037Z,21.8
2018-06-27T09:32:07.581Z,21.9
2018-06-27T09:32:28.078Z,21.8
2018-06-27T09:32:48.439Z,21.8
2018-06-27T09:33:08.874Z,22
2018-06-27T09:33:30.215Z,21.9
2018-06-27T09:33:50.872Z,22
2018-06-27T09:34:11.434Z,22
2018-06-27T09:34:31.915Z,22
2018-06-27T09:34:52.493Z,22
2018-06-27T09:35:13.706Z,22
2018-06-27T09:35:35.034Z,22
2018-06-27T09:35:55.785Z,22
2018-06-27T09:36:16.686Z,22.1
2018-06-27T09:36:37.470Z,22
2018-06-27T09:36:58.159Z,22.1
2018-06-27T09:37:18.900Z,22.1
2018-06-27T09:37:39.614Z,22.2
2018-06-27T09:38:00.325Z,22.1
2018-06-27T09:38:21.250Z,22.2
2018-06-27T09:38:41.635Z,22.1
2018-06-27T09:39:02.278Z,22.1
2018-06-27T09:39:22.751Z,22
2018-06-27T09:39:43.499Z,22.1
2018-06-27T09:40:04.050Z,22.1
2018-06-27T09:40:24.787Z,22.1
2018-06-27T09:40:45.128Z,22
2018-06-27T09:41:05.578Z,22
2018-06-27T09:41:26.145Z,22.1
2018-06-27T09:41:46.621Z,22.1
2018-06-27T09:42:07.277Z,22.2
2018-06-27T09:42:28.152Z,22.1
2018-06-27T09:42:48.813Z,22.2
2018-06-27T09:43:09.448Z,22.1
2018-06-27T09:43:30.234Z,22.2
2018-06-27T09:43:50.736Z,22.2
2018-06-27T09:44:11.170Z,22.2
2018-06-27T09:44:31.980Z,22.1
2018-06-27T09:44:52.388Z,22.2
2018-06-27T09:45:13.113Z,22.1
2018-06-27T09:45:33.609Z,22.2
2018-06-27T09:45:54.461Z,22.1
2018-06-27T09:46:15.139Z,22.1
2018-06-27T09:46:36.819Z,22
2018-06-27T09:46:57.561Z,22
2018-06-27T09:47:18.062Z,22
2018-06-27T09:47:38.823Z,22
2018-06-27T09:47:59.463Z,22
2018-06-27T09:48:20.199Z,22
2018-06-27T09:48:40.970Z,21.9
2018-06-27T09:49:01.452Z,21.8
2018-06-27T09:49:22.246Z,21.8
2018-06-27T09:49:42.732Z,21.8
2018-06-27T09:50:03.451Z,21.8
2018-06-27T09:50:24.216Z,21.7
2018-06-27T09:50:44.818Z,21.7
2018-06-27T09:51:05.479Z,21.6
2018-06-27T09:51:26.142Z,21.5
2018-06-27T09:51:47.556Z,21.5
2018-06-27T09:52:08.299Z,21.5
2018-06-27T09:52:29.211Z,21.4
2018-06-27T09:52:49.892Z,21.5
2018-06-27T09:53:10.504Z,21.5
2018-06-27T09:53:31.060Z,21.5
2018-06-27T09:53:51.914Z,21.6
2018-06-27T09:54:12.665Z,21.6
2018-06-27T09:54:33.800Z,21.7
2018-06-27T09:54:55.161Z,21.6
2018-06-27T09:55:15.772Z,21.7
2018-06-27T09:55:36.274Z,21.7
2018-06-27T09:55:56.841Z,21.7
2018-06-27T09:56:17.331Z,21.6
2018-06-27T09:56:37.875Z,21.7
2018-06-27T09:56:58.462Z,21.7
2018-06-27T09:57:19.203Z,21.8
2018-06-27T09:57:40.209Z,21.8
2018-06-27T09:58:00.843Z,21.8
2018-06-27T09:58:21.331Z,21.8
2018-06-27T09:58:41.715Z,21.9
2018-06-27T09:59:02.245Z,21.8
2018-06-27T09:59:22.812Z,21.8
2018-06-27T09:59:43.112Z,21.9
2018-06-27T10:00:03.629Z,22
2018-06-27T10:00:24.116Z,22
2018-06-27T10:00:44.582Z,22
2018-06-27T10:01:04.992Z,22.1
2018-06-27T10:01:25.489Z,22.1
2018-06-27T10:01:45.961Z,22.1
2018-06-27T10:02:06.849Z,22.1
2018-06-27T10:02:27.359Z,22.1
2018-06-27T10:02:47.998Z,22.1
2018-06-27T10:03:08.676Z,22.2
2018-06-27T10:03:29.232Z,22.2
2018-06-27T10:03:50.015Z,22.3
2018-06-27T10:04:10.776Z,22.3
2018-06-27T10:04:31.691Z,22.3
2018-06-27T10:04:52.369Z,22.3
2018-06-27T10:05:13.474Z,22.3
2018-06-27T10:05:34.161Z,22.4
2018-06-27T10:05:54.745Z,22.3
2018-06-27T10:06:16.126Z,22.4
2018-06-27T10:06:36.817Z,22.4
2018-06-27T10:06:57.732Z,22.4
2018-06-27T10:07:19.013Z,22.4
2018-06-27T10:07:39.594Z,22.4
2018-06-27T10:08:00.241Z,22.4
2018-06-27T10:08:20.652Z,22.3
2018-06-27T10:08:41.653Z,22.4
2018-06-27T10:09:02.345Z,22.3
2018-06-27T10:09:22.998Z,22.3
2018-06-27T10:09:43.605Z,22.3
2018-06-27T10:10:04.134Z,22.2
2018-06-27T10:10:24.985Z,22.2
2018-06-27T10:10:46.179Z,22.2
2018-06-27T10:11:06.620Z,22.3
2018-06-27T10:11:27.308Z,22.2
2018-06-27T10:11:47.809Z,22.3
2018-06-27T10:12:08.770Z,22.2
2018-06-27T10:12:29.356Z,22.2
2018-06-27T10:12:49.974Z,22.2
2018-06-27T10:13:10.526Z,22.3
2018-06-27T10:13:30.940Z,22.3
2018-06-27T10:13:51.551Z,22.3
2018-06-27T10:14:12.553Z,22.3
2018-06-27T10:14:33.509Z,22.2
2018-06-27T10:14:54.265Z,22.2
2018-06-27T10:15:15.106Z,22.2
2018-06-27T10:15:35.825Z,22.3
2018-06-27T10:15:56.525Z,22.2
2018-06-27T10:16:17.494Z,22.3
2018-06-27T10:16:38.353Z,22.3
2018-06-27T10:17:00.210Z,22.3
2018-06-27T10:17:20.998Z,22.3
2018-06-27T10:17:41.576Z,22.3
2018-06-27T10:18:02.179Z,22.3
2018-06-27T10:18:23.016Z,22.3
2018-06-27T10:18:43.773Z,22.4
2018-06-27T10:19:04.335Z,22.4
2018-06-27T10:19:25.297Z,22.4
2018-06-27T10:19:46.037Z,22.5
2018-06-27T10:20:07.130Z,22.4
2018-06-27T10:20:27.503Z,22.4
2018-06-27T10:20:48.130Z,22.4
2018-06-27T10:21:08.937Z,22.5
2018-06-27T10:21:29.661Z,22.5
2018-06-27T10:21:50.408Z,22.5
2018-06-27T10:22:11.131Z,22.5
2018-06-27T10:22:31.617Z,22.5
2018-06-27T10:22:52.076Z,22.6
2018-06-27T10:23:13.026Z,22.5
2018-06-27T10:23:33.670Z,22.5
2018-06-27T10:23:54.814Z,22.5
2018-06-27T10:24:15.543Z,22.5
2018-06-27T10:24:36.123Z,22.6
2018-06-27T10:24:57.125Z,22.6
2018-06-27T10:25:17.753Z,22.6
2018-06-27T10:25:38.422Z,22.7
2018-06-27T10:25:59.105Z,22.7
2018-06-27T10:26:19.722Z,22.7
2018-06-27T10:26:40.483Z,22.7
2018-06-27T10:27:01.026Z,22.8
2018-06-27T10:27:21.535Z,22.8
2018-06-27T10:27:42.198Z,22.8
2018-06-27T10:28:02.658Z,22.8
2018-06-27T10:28:23.319Z,22.8
2018-06-27T10:28:44.162Z,22.8
2018-06-27T10:29:04.799Z,22.8
2018-06-27T10:29:25.394Z,22.8
2018-06-27T10:29:45.956Z,22.8